Time;durP1;ratioP1;P1;durP2;ratioP2;P2;SDS_P1;SDS_P2;PMS_P1;PMS_P2;Temp;Humidity;BMP_temperature;BMP_pressure;BME280_temperature;BME280_humidity;BME280_pressure;Samples;Min_cycle;Max_cycle;Signal;HPM_P1;HPM_P2
2021/06/12 00:01:16;;;;;;;6.40;5.87;;;;;;;;;;3600347;39;20724;-76
2021/06/12 00:03:42;;;;;;;6.40;5.80;;;;;;;;;;3584604;39;20452;-76
2021/06/12 00:06:08;;;;;;;9.03;6.43;;;;;;;;;;3596045;39;20538;-76
2021/06/12 00:08:34;;;;;;;5.80;5.00;;;;;;;;;;3588332;39;20419;-76
2021/06/12 00:11:01;;;;;;;6.87;5.53;;;;;;;;;;3601895;39;20452;-76
2021/06/12 00:13:27;;;;;;;6.17;5.57;;;;;;;;;;3600234;39;20392;-76
2021/06/12 00:15:53;;;;;;;7.40;5.77;;;;;;;;;;3592248;39;20451;-76
2021/06/12 00:18:19;;;;;;;7.00;6.30;;;;;;;;;;3592478;39;20422;-76
2021/06/12 00:20:45;;;;;;;6.10;5.33;;;;;;;;;;3602479;39;20418;-76
2021/06/12 00:23:12;;;;;;;7.80;5.77;;;;;;;;;;3601636;39;20391;-76
2021/06/12 00:25:38;;;;;;;6.53;5.30;;;;;;;;;;3590943;39;20858;-76
2021/06/12 00:28:04;;;;;;;5.93;5.33;;;;;;;;;;3599909;39;20434;-76
2021/06/12 00:30:31;;;;;;;6.80;5.70;;;;;;;;;;3584838;39;20407;-76
2021/06/12 00:32:57;;;;;;;8.60;5.50;;;;;;;;;;3600857;39;20412;-76
2021/06/12 00:35:23;;;;;;;6.23;5.40;;;;;;;;;;3602002;39;20496;-75
2021/06/12 00:37:49;;;;;;;6.97;6.10;;;;;;;;;;3602072;39;20437;-76
2021/06/12 00:40:16;;;;;;;7.70;5.60;;;;;;;;;;3601056;39;21091;-75
2021/06/12 00:42:43;;;;;;;6.80;5.90;;;;;;;;;;3600833;39;20901;-76
2021/06/12 00:45:13;;;;;;;8.27;7.13;;;;;;;;;;3587574;39;20426;-76
2021/06/12 00:47:39;;;;;;;9.23;6.23;;;;;;;;;;3601556;39;20422;-76
2021/06/12 00:50:06;;;;;;;6.10;5.50;;;;;;;;;;3596577;39;20500;-75
2021/06/12 00:52:32;;;;;;;8.87;6.77;;;;;;;;;;3600927;39;20387;-75
2021/06/12 00:54:58;;;;;;;10.60;6.10;;;;;;;;;;3599944;39;20403;-76
2021/06/12 00:57:24;;;;;;;8.83;7.27;;;;;;;;;;3582006;39;20406;-76
2021/06/12 00:59:50;;;;;;;13.80;7.00;;;;;;;;;;3598290;39;20434;-76
2021/06/12 01:04:45;;;;;;;8.70;6.80;;;;;;;;;;3604064;39;20422;-74
2021/06/12 01:07:11;;;;;;;7.37;6.37;;;;;;;;;;3598869;39;20417;-74
2021/06/12 01:09:37;;;;;;;8.83;7.33;;;;;;;;;;3600352;39;20495;-75
2021/06/12 01:12:10;;;;;;;13.30;7.50;;;;;;;;;;3612263;39;20385;-75
2021/06/12 01:14:41;;;;;;;9.53;7.40;;;;;;;;;;3611126;39;20471;-75
2021/06/12 01:17:13;;;;;;;9.50;7.70;;;;;;;;;;3614057;39;20426;-74
2021/06/12 01:19:39;;;;;;;9.00;8.10;;;;;;;;;;3613279;39;21182;-75
2021/06/12 01:22:11;;;;;;;12.40;8.17;;;;;;;;;;3613133;39;20394;-75
2021/06/12 01:24:48;;;;;;;10.90;8.27;;;;;;;;;;3603173;39;21211;-74
2021/06/12 01:27:14;;;;;;;12.50;9.40;;;;;;;;;;3601882;39;20538;-75
2021/06/12 01:29:59;;;;;;;11.70;9.23;;;;;;;;;;3602299;39;21192;-74
2021/06/12 01:32:26;;;;;;;13.07;7.10;;;;;;;;;;3602571;39;20740;-74
2021/06/12 01:34:52;;;;;;;9.93;8.13;;;;;;;;;;3612894;39;20808;-74
2021/06/12 01:37:20;;;;;;;9.33;7.70;;;;;;;;;;3613186;39;20446;-74
2021/06/12 01:39:47;;;;;;;10.93;8.80;;;;;;;;;;3608184;39;20726;-75
2021/06/12 01:42:13;;;;;;;9.03;7.17;;;;;;;;;;3611417;39;20390;-75
2021/06/12 01:44:40;;;;;;;10.13;6.97;;;;;;;;;;3611316;39;20493;-74
2021/06/12 01:47:07;;;;;;;17.13;5.90;;;;;;;;;;3613120;39;20404;-74
2021/06/12 01:49:34;;;;;;;8.90;6.47;;;;;;;;;;3604466;39;20375;-74
2021/06/12 01:52:00;;;;;;;9.83;5.20;;;;;;;;;;3607736;39;20821;-74
2021/06/12 01:54:27;;;;;;;7.50;4.90;;;;;;;;;;3612254;39;20441;-75
2021/06/12 01:56:53;;;;;;;6.67;4.40;;;;;;;;;;3594890;39;20435;-74
2021/06/12 01:59:20;;;;;;;6.70;5.00;;;;;;;;;;3599200;39;20417;-74
2021/06/12 02:01:49;;;;;;;5.20;4.70;;;;;;;;;;3603278;39;20706;-74
2021/06/12 02:04:17;;;;;;;5.00;4.30;;;;;;;;;;3595560;39;20411;-75
2021/06/12 02:06:44;;;;;;;4.73;4.33;;;;;;;;;;3598112;39;20422;-75
2021/06/12 02:09:11;;;;;;;8.53;5.50;;;;;;;;;;3604847;39;20408;-76
2021/06/12 02:11:38;;;;;;;5.17;4.73;;;;;;;;;;3595458;39;20398;-76
2021/06/12 02:14:04;;;;;;;8.97;6.03;;;;;;;;;;3596977;39;20450;-76
2021/06/12 02:16:30;;;;;;;5.60;4.70;;;;;;;;;;3597421;39;20415;-77
2021/06/12 02:18:56;;;;;;;7.37;6.20;;;;;;;;;;3606624;39;20442;-76
2021/06/12 02:21:23;;;;;;;6.27;5.60;;;;;;;;;;3592316;39;20784;-76
2021/06/12 02:23:55;;;;;;;7.80;5.37;;;;;;;;;;3596521;39;20875;-76
2021/06/12 02:26:24;;;;;;;6.97;6.27;;;;;;;;;;3597538;39;20410;-76
2021/06/12 02:28:51;;;;;;;6.07;5.47;;;;;;;;;;3598620;39;20426;-76
2021/06/12 02:31:18;;;;;;;6.07;5.47;;;;;;;;;;3597022;39;20419;-76
2021/06/12 02:33:46;;;;;;;5.83;5.07;;;;;;;;;;3598684;39;20415;-76
2021/06/12 02:36:12;;;;;;;8.30;5.67;;;;;;;;;;3606789;39;20419;-77
2021/06/12 02:38:38;;;;;;;6.87;5.80;;;;;;;;;;3597685;39;20423;-76
2021/06/12 02:41:04;;;;;;;6.00;5.40;;;;;;;;;;3604814;39;20399;-76
2021/06/12 02:43:30;;;;;;;6.83;5.67;;;;;;;;;;3598409;39;20415;-76
2021/06/12 02:45:57;;;;;;;7.73;5.70;;;;;;;;;;3596605;39;20811;-76
2021/06/12 02:48:26;;;;;;;6.17;5.57;;;;;;;;;;3598466;39;20414;-76
2021/06/12 02:50:52;;;;;;;6.83;6.00;;;;;;;;;;3598558;39;20398;-77
2021/06/12 02:53:22;;;;;;;11.20;5.47;;;;;;;;;;3597450;39;20632;-76
2021/06/12 02:55:48;;;;;;;7.10;6.23;;;;;;;;;;3605346;39;20500;-76
2021/06/12 02:58:15;;;;;;;10.03;7.50;;;;;;;;;;3598137;39;20415;-76
2021/06/12 03:00:43;;;;;;;8.10;5.93;;;;;;;;;;3598544;39;20840;-76
2021/06/12 03:03:12;;;;;;;12.03;7.80;;;;;;;;;;3599768;39;20394;-76
2021/06/12 03:05:40;;;;;;;9.20;6.87;;;;;;;;;;3598751;39;20407;-76
2021/06/12 03:08:08;;;;;;;7.80;6.50;;;;;;;;;;3597691;39;20403;-76
2021/06/12 03:10:34;;;;;;;8.00;6.00;;;;;;;;;;3597116;39;20379;-77
2021/06/12 03:13:03;;;;;;;10.70;7.00;;;;;;;;;;3606451;39;20403;-76
2021/06/12 03:15:31;;;;;;;11.77;6.87;;;;;;;;;;3598578;39;20742;-77
2021/06/12 03:17:58;;;;;;;19.00;7.73;;;;;;;;;;3605618;39;20774;-76
2021/06/12 03:20:24;;;;;;;11.50;7.90;;;;;;;;;;3605997;39;20455;-76
2021/06/12 03:22:52;;;;;;;11.00;8.77;;;;;;;;;;3603674;39;20411;-76
2021/06/12 03:25:23;;;;;;;9.77;8.77;;;;;;;;;;3604853;39;20422;-76
2021/06/12 03:27:49;;;;;;;14.90;8.73;;;;;;;;;;3604729;39;20528;-76
2021/06/12 03:30:16;;;;;;;15.27;9.87;;;;;;;;;;3598203;39;20410;-76
2021/06/12 03:32:42;;;;;;;15.93;9.23;;;;;;;;;;3605098;39;20412;-77
2021/06/12 03:35:09;;;;;;;10.60;8.30;;;;;;;;;;3596905;39;20408;-76
2021/06/12 03:37:35;;;;;;;11.63;8.77;;;;;;;;;;3605454;39;20539;-76
2021/06/12 03:40:01;;;;;;;16.37;8.90;;;;;;;;;;3604550;39;20761;-76
2021/06/12 03:42:28;;;;;;;18.23;9.40;;;;;;;;;;3596795;39;20538;-76
2021/06/12 03:44:55;;;;;;;9.47;7.83;;;;;;;;;;3596480;39;21193;-76
2021/06/12 03:47:23;;;;;;;11.53;7.67;;;;;;;;;;3597924;39;20430;-76
2021/06/12 03:49:49;;;;;;;10.40;7.73;;;;;;;;;;3597170;39;20473;-76
2021/06/12 03:52:15;;;;;;;12.23;8.47;;;;;;;;;;3597922;39;20485;-76
2021/06/12 03:54:42;;;;;;;10.30;7.17;;;;;;;;;;3605382;39;20681;-76
2021/06/12 03:57:08;;;;;;;7.50;6.67;;;;;;;;;;3594709;39;20496;-77
2021/06/12 03:59:34;;;;;;;7.47;6.73;;;;;;;;;;3604855;39;20404;-76
2021/06/12 04:02:01;;;;;;;7.93;6.83;;;;;;;;;;3605571;39;20396;-76
2021/06/12 04:04:27;;;;;;;8.53;6.23;;;;;;;;;;3604832;39;20857;-76
2021/06/12 04:06:53;;;;;;;6.80;5.63;;;;;;;;;;3598241;39;20544;-76
2021/06/12 04:09:20;;;;;;;6.03;5.43;;;;;;;;;;3597869;39;20774;-76
2021/06/12 04:11:49;;;;;;;8.90;6.40;;;;;;;;;;3597723;39;20407;-76
2021/06/12 04:14:15;;;;;;;7.77;5.80;;;;;;;;;;3597723;39;20401;-76
2021/06/12 04:16:41;;;;;;;10.43;5.10;;;;;;;;;;3597508;39;20411;-76
2021/06/12 04:19:07;;;;;;;7.00;5.77;;;;;;;;;;3598671;39;20485;-76
2021/06/12 04:21:33;;;;;;;7.10;5.10;;;;;;;;;;3603562;39;20406;-76
2021/06/12 04:23:59;;;;;;;6.83;5.30;;;;;;;;;;3605569;39;20826;-76
2021/06/12 04:26:25;;;;;;;12.30;5.10;;;;;;;;;;3597896;39;20402;-76
2021/06/12 04:28:51;;;;;;;8.40;5.20;;;;;;;;;;3598256;39;20386;-76
2021/06/12 04:31:17;;;;;;;7.53;6.00;;;;;;;;;;3598545;39;20493;-76
2021/06/12 04:33:43;;;;;;;6.93;5.30;;;;;;;;;;3605226;39;20407;-76
2021/06/12 04:36:09;;;;;;;7.97;6.07;;;;;;;;;;3603590;39;21068;-76
2021/06/12 04:38:35;;;;;;;6.70;5.80;;;;;;;;;;3599902;39;20437;-76
2021/06/12 04:41:01;;;;;;;9.60;6.20;;;;;;;;;;3605573;39;20915;-76
2021/06/12 04:43:28;;;;;;;10.43;6.40;;;;;;;;;;3598486;39;20408;-76
2021/06/12 04:45:54;;;;;;;11.30;6.57;;;;;;;;;;3598138;39;20811;-74
2021/06/12 04:48:20;;;;;;;8.23;7.10;;;;;;;;;;3598941;39;20410;-76
2021/06/12 04:50:46;;;;;;;7.83;6.43;;;;;;;;;;3604205;39;20852;-77
2021/06/12 04:53:12;;;;;;;9.47;6.57;;;;;;;;;;3605374;39;20396;-75
2021/06/12 04:55:42;;;;;;;9.43;7.40;;;;;;;;;;3596704;39;20955;-74
2021/06/12 04:58:10;;;;;;;10.47;6.50;;;;;;;;;;3605992;39;20399;-75
2021/06/12 05:00:36;;;;;;;9.50;7.10;;;;;;;;;;3604154;39;20706;-75
2021/06/12 05:03:03;;;;;;;9.30;6.10;;;;;;;;;;3597733;39;20434;-75
2021/06/12 05:05:29;;;;;;;11.73;6.50;;;;;;;;;;3596128;39;20416;-75
2021/06/12 05:07:55;;;;;;;12.23;7.17;;;;;;;;;;3605205;39;20726;-75
2021/06/12 05:10:21;;;;;;;8.50;6.30;;;;;;;;;;3604835;39;20776;-75
2021/06/12 05:12:47;;;;;;;7.83;6.03;;;;;;;;;;3596633;39;20485;-75
2021/06/12 05:15:13;;;;;;;9.10;6.63;;;;;;;;;;3605192;39;21131;-75
2021/06/12 05:17:40;;;;;;;8.77;6.70;;;;;;;;;;3597741;39;20451;-75
2021/06/12 05:20:07;;;;;;;8.83;6.20;;;;;;;;;;3592146;39;20396;-76
2021/06/12 05:22:33;;;;;;;8.20;6.30;;;;;;;;;;3604128;39;20422;-75
2021/06/12 05:25:00;;;;;;;10.67;7.10;;;;;;;;;;3598222;39;20414;-75
2021/06/12 05:27:26;;;;;;;7.60;5.87;;;;;;;;;;3597136;39;20412;-75
2021/06/12 05:29:52;;;;;;;6.67;5.53;;;;;;;;;;3602866;39;20655;-75
2021/06/12 05:32:19;;;;;;;12.17;5.80;;;;;;;;;;3602389;39;20515;-77
2021/06/12 05:34:45;;;;;;;11.63;6.57;;;;;;;;;;3597268;39;20422;-77
2021/06/12 05:37:11;;;;;;;10.60;6.53;;;;;;;;;;3597914;39;20379;-77
2021/06/12 05:39:37;;;;;;;8.57;6.60;;;;;;;;;;3604760;39;20462;-75
2021/06/12 05:42:04;;;;;;;8.20;7.00;;;;;;;;;;3596683;39;20454;-77
2021/06/12 05:44:30;;;;;;;7.27;5.73;;;;;;;;;;3598402;39;20412;-79
2021/06/12 05:46:56;;;;;;;7.97;6.37;;;;;;;;;;3608254;39;20395;-76
2021/06/12 05:49:22;;;;;;;7.97;7.17;;;;;;;;;;3595461;39;21207;-76
2021/06/12 05:51:49;;;;;;;10.07;7.03;;;;;;;;;;3601915;39;20492;-75
2021/06/12 05:54:15;;;;;;;11.67;6.43;;;;;;;;;;3597388;39;20406;-76
2021/06/12 05:56:41;;;;;;;9.73;5.70;;;;;;;;;;3605676;39;20398;-76
2021/06/12 05:59:07;;;;;;;7.33;6.50;;;;;;;;;;3604490;39;20410;-76
2021/06/12 06:01:33;;;;;;;8.73;6.27;;;;;;;;;;3598379;39;20808;-76
2021/06/12 06:03:59;;;;;;;8.13;6.60;;;;;;;;;;3598115;39;20992;-75
2021/06/12 06:06:25;;;;;;;8.20;6.73;;;;;;;;;;3595270;39;20458;-76
2021/06/12 06:08:51;;;;;;;7.90;6.57;;;;;;;;;;3593129;39;20495;-75
2021/06/12 06:11:17;;;;;;;9.23;7.40;;;;;;;;;;3595169;39;20470;-76
2021/06/12 06:13:44;;;;;;;9.77;6.90;;;;;;;;;;3592925;39;22635;-75
2021/06/12 06:16:11;;;;;;;13.97;7.60;;;;;;;;;;3602853;39;20811;-75
2021/06/12 06:18:37;;;;;;;8.90;7.73;;;;;;;;;;3596107;39;20408;-75
2021/06/12 06:21:04;;;;;;;9.73;6.67;;;;;;;;;;3596699;39;20419;-75
2021/06/12 06:23:30;;;;;;;9.90;7.53;;;;;;;;;;3597337;39;20421;-76
2021/06/12 06:25:56;;;;;;;9.20;8.30;;;;;;;;;;3594445;39;20588;-76
2021/06/12 06:28:22;;;;;;;13.53;8.40;;;;;;;;;;3603068;39;21263;-76
2021/06/12 06:30:48;;;;;;;12.13;8.67;;;;;;;;;;3603987;39;20458;-76
2021/06/12 06:33:14;;;;;;;12.27;7.90;;;;;;;;;;3597195;39;20668;-76
2021/06/12 06:35:40;;;;;;;8.40;7.50;;;;;;;;;;3594182;39;20879;-76
2021/06/12 06:38:06;;;;;;;11.97;8.87;;;;;;;;;;3604435;39;20505;-76
2021/06/12 06:40:32;;;;;;;8.73;7.67;;;;;;;;;;3603749;39;20541;-76
2021/06/12 06:42:58;;;;;;;9.60;8.60;;;;;;;;;;3598341;39;20422;-76
2021/06/12 06:45:25;;;;;;;11.83;9.17;;;;;;;;;;3604349;39;20398;-75
2021/06/12 06:47:51;;;;;;;15.30;11.33;;;;;;;;;;3599536;39;20849;-76
2021/06/12 06:50:17;;;;;;;11.60;9.90;;;;;;;;;;3604448;39;20795;-76
2021/06/12 06:52:43;;;;;;;12.50;10.70;;;;;;;;;;3597374;39;20456;-75
2021/06/12 06:55:10;;;;;;;13.27;11.87;;;;;;;;;;3598213;39;20482;-76
2021/06/12 06:57:36;;;;;;;16.57;14.97;;;;;;;;;;3598274;39;20719;-76
2021/06/12 07:00:04;;;;;;;16.17;14.53;;;;;;;;;;3598065;39;20407;-76
2021/06/12 07:02:30;;;;;;;21.07;18.83;;;;;;;;;;3598658;39;20579;-76
2021/06/12 07:04:56;;;;;;;28.97;26.07;;;;;;;;;;3597490;39;21172;-76
2021/06/12 07:07:22;;;;;;;30.43;27.33;;;;;;;;;;3606005;39;20395;-76
2021/06/12 07:09:48;;;;;;;31.33;28.13;;;;;;;;;;3596992;39;20407;-75
2021/06/12 07:12:14;;;;;;;39.47;29.37;;;;;;;;;;3597395;39;20530;-75
2021/06/12 07:14:43;;;;;;;31.03;27.60;;;;;;;;;;3596250;39;20437;-76
2021/06/12 07:17:09;;;;;;;31.70;28.13;;;;;;;;;;3606339;39;20444;-76
2021/06/12 07:19:35;;;;;;;34.20;27.20;;;;;;;;;;3598549;39;20407;-76
2021/06/12 07:22:01;;;;;;;30.03;26.83;;;;;;;;;;3597257;39;20810;-75
2021/06/12 07:24:27;;;;;;;28.27;25.43;;;;;;;;;;3605219;39;20504;-75
2021/06/12 07:26:53;;;;;;;30.33;25.70;;;;;;;;;;3598232;39;20458;-75
2021/06/12 07:29:19;;;;;;;28.53;25.73;;;;;;;;;;3595401;39;20470;-75
2021/06/12 07:31:45;;;;;;;30.57;27.17;;;;;;;;;;3597215;39;20415;-75
2021/06/12 07:34:12;;;;;;;36.37;32.57;;;;;;;;;;3594401;39;20402;-75
2021/06/12 07:36:38;;;;;;;41.40;36.87;;;;;;;;;;3596310;39;20414;-75
2021/06/12 07:39:05;;;;;;;44.37;39.50;;;;;;;;;;3598524;39;20985;-75
2021/06/12 07:41:32;;;;;;;49.60;40.93;;;;;;;;;;3603549;39;20567;-75
2021/06/12 07:43:58;;;;;;;44.83;39.97;;;;;;;;;;3594076;39;20422;-75
2021/06/12 07:46:24;;;;;;;45.80;40.90;;;;;;;;;;3595338;39;20575;-75
2021/06/12 07:48:50;;;;;;;53.30;39.73;;;;;;;;;;3604483;39;20429;-75
2021/06/12 07:51:17;;;;;;;42.97;38.13;;;;;;;;;;3596930;39;20415;-75
2021/06/12 07:53:43;;;;;;;44.93;34.60;;;;;;;;;;3594682;39;20398;-75
2021/06/12 07:56:09;;;;;;;38.70;33.70;;;;;;;;;;3594573;39;20831;-75
2021/06/12 07:58:35;;;;;;;40.53;36.17;;;;;;;;;;3596620;39;20400;-75
2021/06/12 08:01:01;;;;;;;42.47;36.80;;;;;;;;;;3602128;39;20434;-76
2021/06/12 08:03:28;;;;;;;43.87;36.57;;;;;;;;;;3596035;39;20393;-75
2021/06/12 08:05:54;;;;;;;42.03;37.67;;;;;;;;;;3597091;39;20412;-75
2021/06/12 08:08:20;;;;;;;36.53;32.03;;;;;;;;;;3604920;39;20716;-75
2021/06/12 08:10:47;;;;;;;44.77;36.10;;;;;;;;;;3601375;39;20375;-75
2021/06/12 08:13:13;;;;;;;40.03;33.27;;;;;;;;;;3601963;39;20395;-76
2021/06/12 08:15:40;;;;;;;44.67;31.63;;;;;;;;;;3595602;39;20454;-76
2021/06/12 08:18:06;;;;;;;37.33;33.33;;;;;;;;;;3598797;39;20400;-75
2021/06/12 08:20:32;;;;;;;37.03;32.63;;;;;;;;;;3603771;39;21095;-75
2021/06/12 08:22:58;;;;;;;36.33;31.30;;;;;;;;;;3595899;39;20399;-75
2021/06/12 08:25:24;;;;;;;32.00;28.70;;;;;;;;;;3598105;39;20879;-76
2021/06/12 08:27:50;;;;;;;31.10;28.00;;;;;;;;;;3599306;39;20490;-76
2021/06/12 08:30:17;;;;;;;31.57;28.47;;;;;;;;;;3594609;39;20405;-76
2021/06/12 08:32:43;;;;;;;34.63;29.40;;;;;;;;;;3604645;39;21178;-76
2021/06/12 08:35:10;;;;;;;29.87;26.63;;;;;;;;;;3594374;39;20934;-76
2021/06/12 08:37:36;;;;;;;28.57;25.70;;;;;;;;;;3595872;39;20427;-76
2021/06/12 08:40:03;;;;;;;28.07;25.00;;;;;;;;;;3595902;39;20446;-76
2021/06/12 08:42:29;;;;;;;29.33;23.87;;;;;;;;;;3596045;39;21272;-75
2021/06/12 08:44:58;;;;;;;29.73;24.57;;;;;;;;;;3595939;39;20737;-75
2021/06/12 08:47:25;;;;;;;25.97;23.37;;;;;;;;;;3605403;39;21013;-75
2021/06/12 08:49:51;;;;;;;26.37;23.73;;;;;;;;;;3596027;39;20850;-75
2021/06/12 08:52:17;;;;;;;24.93;22.37;;;;;;;;;;3597023;39;20409;-75
2021/06/12 08:54:44;;;;;;;23.00;20.70;;;;;;;;;;3596796;39;20404;-75
2021/06/12 08:57:10;;;;;;;23.50;20.70;;;;;;;;;;3603755;39;21124;-75
2021/06/12 08:59:37;;;;;;;22.73;20.53;;;;;;;;;;3594067;39;20549;-75
2021/06/12 09:02:06;;;;;;;25.27;19.07;;;;;;;;;;3593656;39;20427;-75
2021/06/12 09:04:42;;;;;;;20.27;18.27;;;;;;;;;;3594260;39;20426;-75
2021/06/12 09:07:26;;;;;;;21.33;19.10;;;;;;;;;;3596064;39;21008;-76
2021/06/12 09:09:53;;;;;;;19.50;17.63;;;;;;;;;;3595831;39;20414;-75
2021/06/12 09:12:20;;;;;;;20.80;18.70;;;;;;;;;;3594036;39;20398;-75
2021/06/12 09:15:05;;;;;;;20.30;18.17;;;;;;;;;;3603455;39;20420;-75
2021/06/12 09:17:37;;;;;;;22.70;20.63;;;;;;;;;;3597125;39;20407;-75
2021/06/12 09:20:04;;;;;;;23.83;21.50;;;;;;;;;;3592221;39;20446;-76
2021/06/12 09:22:30;;;;;;;24.77;22.63;;;;;;;;;;3594220;39;20743;-75
2021/06/12 09:24:56;;;;;;;24.00;21.87;;;;;;;;;;3595750;39;20431;-75
2021/06/12 09:27:22;;;;;;;25.90;23.40;;;;;;;;;;3596798;39;20416;-75
2021/06/12 09:29:50;;;;;;;26.03;23.77;;;;;;;;;;3604005;39;20400;-75
2021/06/12 09:32:20;;;;;;;28.87;25.80;;;;;;;;;;3604800;39;20780;-75
2021/06/12 09:34:47;;;;;;;26.33;23.83;;;;;;;;;;3603514;39;20415;-75
2021/06/12 09:37:15;;;;;;;27.90;24.90;;;;;;;;;;3597588;39;20491;-76
2021/06/12 09:39:41;;;;;;;27.70;24.80;;;;;;;;;;3602951;39;21262;-75
2021/06/12 09:42:07;;;;;;;27.27;24.57;;;;;;;;;;3597037;39;20385;-76
2021/06/12 09:44:37;;;;;;;26.03;23.60;;;;;;;;;;3596843;39;20700;-75
2021/06/12 09:47:06;;;;;;;26.30;23.50;;;;;;;;;;3597668;39;20439;-76
2021/06/12 09:49:33;;;;;;;26.03;23.53;;;;;;;;;;3597671;39;20409;-76
2021/06/12 09:52:07;;;;;;;25.87;23.47;;;;;;;;;;3596211;39;20387;-76
2021/06/12 09:54:34;;;;;;;26.77;22.40;;;;;;;;;;3603648;39;20404;-76
2021/06/12 09:57:00;;;;;;;25.87;23.17;;;;;;;;;;3598344;39;20406;-76
2021/06/12 09:59:26;;;;;;;23.30;21.10;;;;;;;;;;3596164;39;20531;-75
2021/06/12 10:01:52;;;;;;;23.23;20.87;;;;;;;;;;3596755;39;20838;-76
2021/06/12 10:04:20;;;;;;;25.87;23.27;;;;;;;;;;3597102;39;21244;-75
2021/06/12 10:06:46;;;;;;;26.30;23.60;;;;;;;;;;3597563;39;20415;-76
2021/06/12 10:09:12;;;;;;;24.93;22.53;;;;;;;;;;3587340;39;20500;-76
2021/06/12 10:11:38;;;;;;;23.50;21.20;;;;;;;;;;3596063;39;20502;-75
2021/06/12 10:14:05;;;;;;;24.40;19.13;;;;;;;;;;3596887;39;20442;-76
2021/06/12 10:16:33;;;;;;;17.57;16.07;;;;;;;;;;3597571;39;20810;-76
2021/06/12 10:18:59;;;;;;;18.50;16.70;;;;;;;;;;3597412;39;20428;-76
2021/06/12 10:21:25;;;;;;;18.83;16.73;;;;;;;;;;3594471;39;21039;-76
2021/06/12 10:23:52;;;;;;;16.57;15.03;;;;;;;;;;3604742;39;20408;-76
2021/06/12 10:26:20;;;;;;;18.83;17.10;;;;;;;;;;3597310;39;20455;-76
2021/06/12 10:28:46;;;;;;;21.73;19.77;;;;;;;;;;3604859;39;20415;-76
2021/06/12 10:31:14;;;;;;;21.20;19.10;;;;;;;;;;3594478;39;20399;-76
2021/06/12 10:33:44;;;;;;;19.23;17.33;;;;;;;;;;3604565;39;20396;-76
2021/06/12 10:36:18;;;;;;;18.27;16.37;;;;;;;;;;3595590;39;20395;-76
2021/06/12 10:38:45;;;;;;;20.67;17.97;;;;;;;;;;3596833;39;20418;-76
2021/06/12 10:41:14;;;;;;;18.03;16.33;;;;;;;;;;3603399;39;20477;-76
2021/06/12 10:43:40;;;;;;;19.23;17.40;;;;;;;;;;3597831;39;20402;-76
2021/06/12 10:46:06;;;;;;;18.70;17.10;;;;;;;;;;3595541;39;20938;-76
2021/06/12 10:48:43;;;;;;;16.50;14.97;;;;;;;;;;3597750;39;20416;-75
2021/06/12 10:51:10;;;;;;;17.90;16.30;;;;;;;;;;3603372;39;20427;-75
2021/06/12 10:53:41;;;;;;;15.30;14.20;;;;;;;;;;3595019;39;20415;-75
2021/06/12 10:56:12;;;;;;;11.53;10.43;;;;;;;;;;3594635;39;20425;-75
2021/06/12 10:58:42;;;;;;;11.30;10.40;;;;;;;;;;3594909;39;20418;-75
2021/06/12 11:01:14;;;;;;;11.60;10.50;;;;;;;;;;3593577;39;20483;-75
2021/06/12 11:09:17;;;;;;;12.07;10.67;;;;;;;;;;3597293;39;20445;-76
2021/06/12 11:11:44;;;;;;;11.73;10.70;;;;;;;;;;3595050;39;20400;-76
2021/06/12 11:14:25;;;;;;;11.07;10.13;;;;;;;;;;3596592;39;20451;-75
2021/06/12 11:17:10;;;;;;;10.87;10.17;;;;;;;;;;3595362;39;20495;-75
2021/06/12 11:19:43;;;;;;;10.20;9.60;;;;;;;;;;3594306;39;20509;-75
2021/06/12 11:22:28;;;;;;;9.20;8.50;;;;;;;;;;3594229;39;20936;-75
2021/06/12 11:25:01;;;;;;;8.87;8.17;;;;;;;;;;3594365;39;20415;-75
2021/06/12 11:27:35;;;;;;;7.67;7.07;;;;;;;;;;3602702;39;20492;-75
2021/06/12 11:30:10;;;;;;;8.93;7.90;;;;;;;;;;3596488;39;20415;-75
2021/06/12 11:32:36;;;;;;;9.93;6.50;;;;;;;;;;3603925;39;20397;-75
2021/06/12 11:35:03;;;;;;;8.93;8.10;;;;;;;;;;3603086;39;20711;-75
2021/06/12 11:37:29;;;;;;;7.40;6.70;;;;;;;;;;3603181;39;21123;-75
2021/06/12 11:39:57;;;;;;;6.60;5.93;;;;;;;;;;3604088;39;20411;-75
2021/06/12 11:42:24;;;;;;;7.87;7.20;;;;;;;;;;3602978;39;20508;-76
2021/06/12 11:44:50;;;;;;;7.90;7.07;;;;;;;;;;3601794;39;20582;-75
2021/06/12 11:47:26;;;;;;;7.87;5.77;;;;;;;;;;3593463;39;20441;-75
2021/06/12 11:49:52;;;;;;;5.40;4.90;;;;;;;;;;3601056;39;20546;-76
2021/06/12 11:52:18;;;;;;;6.87;5.60;;;;;;;;;;3602094;39;20473;-76
2021/06/12 11:54:44;;;;;;;6.07;5.50;;;;;;;;;;3595642;39;20459;-76
2021/06/12 11:57:10;;;;;;;6.43;5.27;;;;;;;;;;3602174;39;20407;-76
2021/06/12 11:59:36;;;;;;;11.30;6.40;;;;;;;;;;3598570;39;20547;-76
2021/06/12 12:02:07;;;;;;;9.23;7.93;;;;;;;;;;3596664;39;20489;-76
2021/06/12 12:04:39;;;;;;;10.90;9.80;;;;;;;;;;3593773;39;20423;-76
2021/06/12 12:07:07;;;;;;;10.00;9.30;;;;;;;;;;3595286;39;20416;-76
2021/06/12 12:09:40;;;;;;;11.50;9.20;;;;;;;;;;3593847;39;20429;-76
2021/06/12 12:12:06;;;;;;;9.70;6.97;;;;;;;;;;3603112;39;20402;-76
2021/06/12 12:14:38;;;;;;;7.67;6.97;;;;;;;;;;3596309;39;20782;-76
2021/06/12 12:17:05;;;;;;;11.53;7.10;;;;;;;;;;3597236;39;20433;-76
2021/06/12 12:19:31;;;;;;;6.10;5.60;;;;;;;;;;3602886;39;20402;-77
2021/06/12 12:22:01;;;;;;;8.80;6.80;;;;;;;;;;3602625;39;20408;-76
2021/06/12 12:24:29;;;;;;;10.90;8.30;;;;;;;;;;3596040;39;20395;-77
2021/06/12 12:26:55;;;;;;;10.67;9.83;;;;;;;;;;3596182;39;20415;-77
2021/06/12 12:29:25;;;;;;;9.00;8.40;;;;;;;;;;3595625;39;20411;-76
2021/06/12 12:31:51;;;;;;;8.13;7.53;;;;;;;;;;3594808;39;20400;-75
2021/06/12 12:34:31;;;;;;;8.10;7.47;;;;;;;;;;3602266;39;20916;-75
2021/06/12 12:36:57;;;;;;;8.40;7.67;;;;;;;;;;3596591;39;20396;-75
2021/06/12 12:39:23;;;;;;;10.20;9.30;;;;;;;;;;3602944;39;20444;-75
2021/06/12 12:41:52;;;;;;;9.73;8.93;;;;;;;;;;3602244;39;20810;-75
2021/06/12 12:44:19;;;;;;;10.03;9.23;;;;;;;;;;3598030;39;20415;-75
2021/06/12 12:46:45;;;;;;;9.30;8.37;;;;;;;;;;3594271;39;20403;-76
2021/06/12 12:49:25;;;;;;;10.03;8.33;;;;;;;;;;3603913;39;20880;-75
2021/06/12 12:51:51;;;;;;;8.73;7.50;;;;;;;;;;3601444;39;20415;-76
2021/06/12 12:54:17;;;;;;;10.00;6.77;;;;;;;;;;3595074;39;20474;-76
2021/06/12 12:56:44;;;;;;;9.97;9.07;;;;;;;;;;3594848;39;20407;-76
2021/06/12 12:59:10;;;;;;;9.67;8.70;;;;;;;;;;3602582;39;20857;-76
2021/06/12 13:01:36;;;;;;;9.53;8.50;;;;;;;;;;3594759;39;20391;-75
2021/06/12 13:04:02;;;;;;;6.27;5.70;;;;;;;;;;3601554;39;20954;-75
2021/06/12 13:06:39;;;;;;;6.77;5.33;;;;;;;;;;3594147;39;20813;-75
2021/06/12 13:09:10;;;;;;;9.87;7.07;;;;;;;;;;3597690;39;20786;-75
2021/06/12 13:11:54;;;;;;;7.07;6.43;;;;;;;;;;3596258;39;20384;-75
2021/06/12 13:14:23;;;;;;;6.87;6.23;;;;;;;;;;3603056;39;20423;-76
2021/06/12 13:17:16;;;;;;;16.60;6.80;;;;;;;;;;3605347;39;20401;-76
2021/06/12 13:19:42;;;;;;;9.43;8.83;;;;;;;;;;3595528;39;20459;-76
2021/06/12 13:22:08;;;;;;;12.77;10.60;;;;;;;;;;3602794;39;20395;-76
2021/06/12 13:24:58;;;;;;;9.37;8.47;;;;;;;;;;3602546;39;20437;-76
2021/06/12 13:27:31;;;;;;;7.73;6.93;;;;;;;;;;3595428;39;20434;-76
2021/06/12 13:29:57;;;;;;;10.50;8.20;;;;;;;;;;3590247;39;20627;-76
2021/06/12 13:32:27;;;;;;;11.10;10.03;;;;;;;;;;3597438;39;21497;-76
2021/06/12 13:34:55;;;;;;;9.53;8.83;;;;;;;;;;3594986;39;20753;-75
2021/06/12 13:37:21;;;;;;;10.40;9.70;;;;;;;;;;3603836;39;20403;-75
2021/06/12 13:39:55;;;;;;;10.00;8.67;;;;;;;;;;3604816;39;20457;-76
2021/06/12 13:42:21;;;;;;;9.90;9.10;;;;;;;;;;3596437;39;20380;-76
2021/06/12 13:45:23;;;;;;;8.80;8.20;;;;;;;;;;3603706;39;20411;-76
2021/06/12 13:47:49;;;;;;;11.40;9.37;;;;;;;;;;3570556;40;20464;-76
2021/06/12 13:50:15;;;;;;;14.63;7.93;;;;;;;;;;3571357;40;20432;-76
2021/06/12 13:52:41;;;;;;;10.17;9.23;;;;;;;;;;3565810;40;20498;-76
2021/06/12 13:55:13;;;;;;;4.60;4.23;;;;;;;;;;3571362;40;20464;-76
2021/06/12 13:57:39;;;;;;;5.57;5.10;;;;;;;;;;3573967;40;20441;-76
2021/06/12 14:00:06;;;;;;;8.90;8.13;;;;;;;;;;3572492;40;20535;-76
2021/06/12 14:02:33;;;;;;;7.50;7.00;;;;;;;;;;3572309;40;20468;-76
2021/06/12 14:04:59;;;;;;;4.70;4.40;;;;;;;;;;3572217;40;20447;-76
2021/06/12 14:07:25;;;;;;;9.20;8.50;;;;;;;;;;3572209;40;20409;-76
2021/06/12 14:09:51;;;;;;;7.87;7.40;;;;;;;;;;3573525;40;20397;-76
2021/06/12 14:12:17;;;;;;;7.97;7.47;;;;;;;;;;3571851;40;21808;-77
2021/06/12 14:14:43;;;;;;;7.60;7.10;;;;;;;;;;3568238;40;20856;-76
2021/06/12 14:17:09;;;;;;;6.10;5.13;;;;;;;;;;3562800;40;20465;-76
2021/06/12 14:19:35;;;;;;;5.57;5.17;;;;;;;;;;3563407;40;20410;-75
2021/06/12 14:22:01;;;;;;;7.63;6.93;;;;;;;;;;3588567;39;20823;-75
2021/06/12 14:24:27;;;;;;;7.40;6.90;;;;;;;;;;3603862;39;20484;-76
2021/06/12 14:26:54;;;;;;;6.90;6.60;;;;;;;;;;3602708;39;21219;-75
2021/06/12 14:29:21;;;;;;;11.87;7.10;;;;;;;;;;3596640;39;20462;-75
2021/06/12 14:31:47;;;;;;;15.20;7.77;;;;;;;;;;3595455;39;20380;-75
2021/06/12 14:34:14;;;;;;;6.67;5.97;;;;;;;;;;3595849;39;20791;-75
2021/06/12 14:36:41;;;;;;;6.40;5.87;;;;;;;;;;3603225;39;20741;-75
2021/06/12 14:39:08;;;;;;;10.87;9.43;;;;;;;;;;3602991;39;20484;-75
2021/06/12 14:41:38;;;;;;;7.07;5.47;;;;;;;;;;3594257;39;20907;-76
2021/06/12 14:44:14;;;;;;;5.47;3.93;;;;;;;;;;3595556;39;20408;-76